Time;durP1;ratioP1;P1;durP2;ratioP2;P2;SDS_P1;SDS_P2;PMS_P1;PMS_P2;Temp;Humidity;BMP_temperature;BMP_pressure;BME280_temperature;BME280_humidity;BME280_pressure;Samples;Min_cycle;Max_cycle;Signal;HPM_P1;HPM_P2
2021/06/04 00:01:39;;;;;;;15.57;8.27;;;18.60;97.70;;;;;;5110484;28;20032;-75
2021/06/04 00:04:07;;;;;;;8.88;7.38;;;18.60;97.70;;;;;;5111068;28;20020;-75
2021/06/04 00:06:34;;;;;;;12.15;7.72;;;18.60;97.90;;;;;;5101219;28;20377;-75
2021/06/04 00:09:00;;;;;;;14.32;8.18;;;18.60;98.00;;;;;;5111827;28;20023;-74
2021/06/04 00:11:32;;;;;;;10.55;8.25;;;18.60;98.10;;;;;;5107829;28;20481;-75
2021/06/04 00:14:04;;;;;;;10.60;8.05;;;18.60;98.10;;;;;;5105745;28;20047;-75
2021/06/04 00:16:33;;;;;;;13.93;8.35;;;18.50;98.10;;;;;;5094963;28;20024;-75
2021/06/04 00:19:03;;;;;;;14.57;7.72;;;18.50;97.90;;;;;;5098756;28;20359;-75
2021/06/04 00:21:36;;;;;;;9.52;7.55;;;18.50;97.80;;;;;;5100179;28;20110;-75
2021/06/04 00:24:04;;;;;;;11.70;8.00;;;18.50;97.90;;;;;;5100395;28;20054;-74
2021/06/04 00:26:32;;;;;;;9.65;7.93;;;18.40;98.10;;;;;;5094056;28;20558;-74
2021/06/04 00:28:58;;;;;;;9.82;7.10;;;18.40;98.10;;;;;;5107105;28;20022;-75
2021/06/04 00:31:25;;;;;;;10.45;7.57;;;18.30;98.30;;;;;;5111826;28;20145;-75
2021/06/04 00:33:51;;;;;;;13.70;7.80;;;18.20;98.50;;;;;;5103649;28;20098;-75
2021/06/04 00:36:18;;;;;;;13.10;8.90;;;18.30;98.70;;;;;;5112940;28;20115;-75
2021/06/04 00:38:43;;;;;;;15.73;8.80;;;18.20;98.80;;;;;;5094678;27;20149;-75
2021/06/04 00:41:18;;;;;;;12.65;8.13;;;18.20;98.90;;;;;;5094102;28;20114;-75
2021/06/04 00:43:45;;;;;;;10.07;7.72;;;18.20;99.00;;;;;;5104262;28;20024;-75
2021/06/04 00:46:10;;;;;;;10.07;8.02;;;18.10;99.10;;;;;;5110193;28;20023;-75
2021/06/04 00:48:38;;;;;;;11.90;7.93;;;18.10;99.20;;;;;;5102501;28;20020;-75
2021/06/04 00:51:31;;;;;;;11.13;7.57;;;18.10;99.20;;;;;;5093685;28;20021;-75
2021/06/04 00:53:58;;;;;;;15.57;8.18;;;18.10;99.30;;;;;;5098058;28;20080;-75
2021/06/04 00:56:28;;;;;;;12.05;8.93;;;18.10;99.40;;;;;;5098174;28;20034;-75
2021/06/04 00:58:55;;;;;;;11.30;8.70;;;18.10;99.40;;;;;;5095071;27;20027;-75
2021/06/04 01:01:26;;;;;;;12.05;7.88;;;18.00;99.40;;;;;;5093543;28;20178;-75
2021/06/04 01:03:59;;;;;;;12.13;8.27;;;18.10;99.50;;;;;;5112811;27;20047;-75
2021/06/04 01:06:51;;;;;;;12.23;8.48;;;18.10;99.40;;;;;;5094006;28;20020;-75
2021/06/04 01:09:55;;;;;;;11.80;8.63;;;18.20;99.50;;;;;;5098775;28;20029;-75
2021/06/04 01:12:31;;;;;;;14.40;9.45;;;18.20;99.40;;;;;;5094539;28;20032;-75
2021/06/04 01:15:27;;;;;;;12.77;8.45;;;18.10;99.40;;;;;;5108779;28;20047;-75
2021/06/04 01:18:01;;;;;;;11.95;8.18;;;18.10;99.50;;;;;;5104320;27;20032;-75
2021/06/04 01:20:40;;;;;;;11.75;8.35;;;18.00;99.60;;;;;;5092905;28;20499;-75
2021/06/04 01:23:30;;;;;;;13.23;8.48;;;17.90;99.70;;;;;;5113882;28;20488;-75
2021/06/04 01:26:03;;;;;;;11.73;8.98;;;17.90;99.80;;;;;;5094723;28;20035;-74
2021/06/04 01:28:32;;;;;;;11.65;8.77;;;17.80;99.80;;;;;;5104745;28;20139;-74
2021/06/04 01:31:04;;;;;;;10.57;7.63;;;17.80;99.80;;;;;;5109218;28;20118;-74
2021/06/04 01:34:18;;;;;;;11.95;9.65;;;17.80;99.90;;;;;;5106601;28;20386;-75
2021/06/04 01:37:02;;;;;;;13.03;9.43;;;17.80;99.90;;;;;;5031624;28;20112;-75
2021/06/04 01:39:33;;;;;;;11.48;9.15;;;17.80;99.90;;;;;;5097542;28;20030;-75
2021/06/04 01:42:03;;;;;;;14.63;8.65;;;17.80;99.90;;;;;;5092606;28;20036;-74
2021/06/04 01:44:35;;;;;;;15.98;8.65;;;17.80;99.90;;;;;;5096822;28;20027;-75
2021/06/04 01:47:10;;;;;;;11.93;9.32;;;17.80;99.90;;;;;;5098594;28;20031;-74
2021/06/04 01:49:38;;;;;;;;;;;17.80;99.90;;;;;;5105443;28;20028;-74
2021/06/04 01:52:27;;;;;;;11.13;8.68;;;17.80;99.90;;;;;;5097834;28;19908;-75
2021/06/04 01:55:02;;;;;;;13.65;9.23;;;17.90;99.90;;;;;;5110614;28;20328;-75
2021/06/04 01:57:40;;;;;;;13.57;9.32;;;17.80;99.90;;;;;;5099574;28;20016;-75
2021/06/04 02:00:39;;;;;;;10.95;7.60;;;18.00;99.90;;;;;;5108109;28;20412;-74
2021/06/04 02:03:07;;;;;;;13.68;8.02;;;17.60;99.90;;;;;;5090446;28;20052;-74
2021/06/04 02:05:35;;;;;;;12.85;8.73;;;17.60;99.90;;;;;;5107964;28;20023;-75
2021/06/04 02:08:04;;;;;;;14.52;9.15;;;17.40;99.90;;;;;;5109735;28;20101;-74
2021/06/04 02:10:35;;;;;;;11.75;9.18;;;17.40;99.90;;;;;;5109525;28;20085;-75
2021/06/04 02:13:04;;;;;;;11.82;8.55;;;17.40;99.90;;;;;;5107483;28;20050;-74
2021/06/04 02:15:34;;;;;;;12.45;8.57;;;17.40;99.90;;;;;;5107170;28;20120;-75
2021/06/04 02:18:12;;;;;;;13.13;8.82;;;17.40;99.90;;;;;;5096368;28;20024;-75
2021/06/04 02:20:47;;;;;;;14.05;8.98;;;17.50;99.90;;;;;;5098217;28;20055;-74
2021/06/04 02:23:25;;;;;;;12.85;8.95;;;17.40;99.90;;;;;;5109736;28;20525;-74
2021/06/04 02:26:18;;;;;;;11.10;7.95;;;17.50;99.90;;;;;;5094088;28;20042;-74
2021/06/04 02:29:06;;;;;;;12.00;9.40;;;17.40;99.90;;;;;;5104362;28;20031;-75
2021/06/04 02:31:46;;;;;;;14.45;9.02;;;17.30;99.90;;;;;;5092347;28;20024;-74
2021/06/04 02:34:26;;;;;;;11.00;8.80;;;17.40;99.90;;;;;;5101407;28;20023;-75
2021/06/04 02:37:05;;;;;;;12.23;8.80;;;17.30;99.90;;;;;;5110729;28;20023;-74
2021/06/04 02:39:42;;;;;;;11.82;8.38;;;17.30;99.90;;;;;;5093410;28;20016;-74
2021/06/04 02:42:10;;;;;;;13.02;8.55;;;17.20;99.90;;;;;;5094030;28;20072;-74
2021/06/04 02:44:47;;;;;;;11.57;8.60;;;17.40;99.90;;;;;;5095840;28;20480;-75
2021/06/04 02:47:37;;;;;;;13.57;9.20;;;17.30;99.90;;;;;;5092597;28;20016;-75
2021/06/04 02:50:11;;;;;;;12.60;8.68;;;17.40;99.90;;;;;;5097747;27;20036;-75
2021/06/04 02:52:43;;;;;;;12.68;8.23;;;17.30;99.90;;;;;;5096458;28;20035;-75
2021/06/04 02:55:28;;;;;;;13.68;7.85;;;17.40;99.90;;;;;;5103012;28;20160;-75
2021/06/04 02:57:54;;;;;;;12.20;8.85;;;17.40;99.90;;;;;;5107265;28;20019;-74
2021/06/04 03:00:42;;;;;;;15.82;10.13;;;17.30;99.90;;;;;;5098939;28;20045;-75
2021/06/04 03:03:09;;;;;;;14.50;9.05;;;17.40;99.90;;;;;;5088184;28;20088;-75
2021/06/04 03:05:39;;;;;;;14.07;9.15;;;17.40;99.90;;;;;;5100763;28;20584;-75
2021/06/04 03:08:06;;;;;;;12.90;9.00;;;17.40;99.90;;;;;;5102721;28;20028;-75
2021/06/04 03:10:38;;;;;;;13.30;8.98;;;17.30;99.90;;;;;;5095264;28;21058;-75
2021/06/04 03:13:07;;;;;;;15.45;9.50;;;17.40;99.90;;;;;;5092293;28;20024;-75
2021/06/04 03:15:41;;;;;;;12.60;9.35;;;17.40;99.90;;;;;;5097193;28;20043;-75
2021/06/04 03:18:09;;;;;;;;;;;17.30;99.90;;;;;;5100904;28;20031;-75
2021/06/04 03:20:39;;;;;;;11.65;9.27;;;17.30;99.90;;;;;;5084022;28;19912;-75
2021/06/04 03:23:11;;;;;;;12.95;9.55;;;17.30;99.90;;;;;;5085317;28;20059;-75
2021/06/04 03:25:48;;;;;;;13.00;9.88;;;17.30;99.90;;;;;;5083833;28;20088;-75
2021/06/04 03:28:18;;;;;;;12.25;9.30;;;17.40;99.90;;;;;;5100305;28;20046;-75
2021/06/04 03:30:46;;;;;;;18.25;10.30;;;17.30;99.90;;;;;;5102128;28;20031;-75
2021/06/04 03:33:19;;;;;;;14.50;9.85;;;17.30;99.90;;;;;;5093233;28;20024;-75
2021/06/04 03:35:46;;;;;;;17.95;9.38;;;17.30;99.90;;;;;;5104640;28;20087;-75
2021/06/04 03:38:14;;;;;;;12.68;9.35;;;17.20;99.90;;;;;;5102207;28;20039;-75
2021/06/04 03:40:41;;;;;;;12.40;8.45;;;17.20;99.90;;;;;;5092259;28;20078;-75
2021/06/04 03:43:10;;;;;;;17.40;10.32;;;17.30;99.90;;;;;;5083488;28;20482;-75
2021/06/04 03:45:40;;;;;;;13.27;9.63;;;17.20;99.90;;;;;;5085211;28;20055;-75
2021/06/04 03:48:10;;;;;;;13.90;9.82;;;17.30;99.90;;;;;;5087624;28;20032;-75
2021/06/04 03:50:37;;;;;;;13.25;9.65;;;17.30;99.90;;;;;;5100327;28;20027;-75
2021/06/04 03:53:06;;;;;;;13.80;9.82;;;17.20;99.90;;;;;;5092655;28;20382;-75
2021/06/04 03:55:33;;;;;;;15.35;9.48;;;17.20;99.90;;;;;;5095200;28;20103;-75
2021/06/04 03:57:59;;;;;;;12.10;8.93;;;17.30;99.90;;;;;;5098446;28;20028;-75
2021/06/04 04:00:36;;;;;;;15.13;9.55;;;17.40;99.90;;;;;;5090888;28;20081;-75
2021/06/04 04:03:03;;;;;;;13.48;9.05;;;17.40;99.90;;;;;;5105155;28;20145;-75
2021/06/04 04:05:30;;;;;;;12.27;9.57;;;17.50;99.90;;;;;;5104654;28;20034;-75
2021/06/04 04:07:57;;;;;;;14.68;9.25;;;17.60;99.90;;;;;;5089376;28;20027;-75
2021/06/04 04:10:25;;;;;;;13.82;9.63;;;17.50;99.90;;;;;;5103735;28;20373;-75
2021/06/04 04:12:53;;;;;;;12.82;8.57;;;17.40;99.90;;;;;;5104302;28;20663;-75
2021/06/04 04:15:21;;;;;;;12.10;8.98;;;17.40;99.90;;;;;;5109714;28;20090;-75
2021/06/04 04:17:50;;;;;;;12.30;8.80;;;17.30;99.90;;;;;;5098393;28;20016;-75
2021/06/04 04:20:21;;;;;;;10.52;8.98;;;17.30;99.90;;;;;;5087568;28;20114;-75
2021/06/04 04:22:47;;;;;;;12.93;8.98;;;17.40;99.90;;;;;;5098981;28;20039;-75
2021/06/04 04:25:14;;;;;;;12.40;9.10;;;17.40;99.90;;;;;;5106305;28;20024;-75
2021/06/04 04:27:40;;;;;;;20.00;9.77;;;17.30;99.90;;;;;;5094676;28;20038;-75
2021/06/04 04:30:09;;;;;;;14.10;9.32;;;17.20;99.90;;;;;;5097707;28;20028;-75
2021/06/04 04:32:37;;;;;;;10.90;8.00;;;17.00;99.90;;;;;;5103316;28;20028;-75
2021/06/04 04:35:06;;;;;;;11.20;8.60;;;16.80;99.90;;;;;;5105700;28;20074;-75
2021/06/04 04:37:32;;;;;;;16.33;8.85;;;16.60;99.90;;;;;;5089162;28;20582;-74
2021/06/04 04:39:57;;;;;;;12.43;8.40;;;16.60;99.90;;;;;;5102977;28;20023;-74
2021/06/04 04:42:24;;;;;;;11.25;8.88;;;16.80;99.90;;;;;;5100734;28;20028;-75
2021/06/04 04:44:51;;;;;;;13.05;8.93;;;16.70;99.90;;;;;;5088859;28;20024;-75
2021/06/04 04:47:20;;;;;;;12.00;8.63;;;16.80;99.90;;;;;;5103321;28;20122;-75
2021/06/04 04:49:45;;;;;;;13.73;9.73;;;17.00;99.90;;;;;;5102948;28;20412;-75
2021/06/04 04:52:12;;;;;;;13.73;8.63;;;17.00;99.90;;;;;;5086570;28;20024;-75
2021/06/04 04:54:44;;;;;;;13.00;9.98;;;17.00;99.90;;;;;;5099601;28;20104;-74
2021/06/04 04:57:10;;;;;;;21.17;9.80;;;16.90;99.90;;;;;;5096370;28;20026;-75
2021/06/04 04:59:36;;;;;;;12.57;10.00;;;16.90;99.90;;;;;;5099755;28;20020;-75
2021/06/04 05:02:02;;;;;;;14.13;9.02;;;17.00;99.90;;;;;;5086042;28;20107;-75
2021/06/04 05:04:28;;;;;;;13.98;8.07;;;17.00;99.90;;;;;;5093941;28;20111;-74
2021/06/04 05:06:54;;;;;;;12.98;9.27;;;17.00;99.90;;;;;;5091036;28;20147;-75
2021/06/04 05:09:20;;;;;;;12.57;8.57;;;16.90;99.90;;;;;;5102947;28;20023;-75
2021/06/04 05:11:48;;;;;;;12.43;9.35;;;17.10;99.90;;;;;;5106098;28;20030;-75
2021/06/04 05:14:14;;;;;;;13.38;9.13;;;17.30;99.90;;;;;;5099515;28;20054;-75
2021/06/04 05:16:41;;;;;;;11.70;8.68;;;17.20;99.90;;;;;;5085538;28;20036;-75
2021/06/04 05:19:08;;;;;;;10.85;8.20;;;17.20;99.90;;;;;;5094390;28;20098;-75
2021/06/04 05:21:34;;;;;;;12.70;9.15;;;17.30;99.90;;;;;;5097557;28;20024;-75
2021/06/04 05:24:02;;;;;;;12.45;8.73;;;17.40;99.90;;;;;;5093186;28;20405;-75
2021/06/04 05:26:27;;;;;;;17.60;9.55;;;17.50;99.90;;;;;;5086842;28;20024;-75
2021/06/04 05:28:53;;;;;;;14.88;10.20;;;17.60;99.90;;;;;;5088149;28;20039;-75
2021/06/04 05:31:19;;;;;;;12.93;9.43;;;17.70;99.90;;;;;;5084417;28;20020;-76
2021/06/04 05:33:47;;;;;;;10.95;9.05;;;17.70;99.90;;;;;;5092722;28;20031;-74
2021/06/04 05:36:17;;;;;;;12.50;9.68;;;17.80;99.90;;;;;;5087056;28;20681;-75
2021/06/04 05:38:45;;;;;;;12.82;8.30;;;17.80;99.90;;;;;;5099561;28;20039;-74
2021/06/04 05:41:11;;;;;;;11.60;8.95;;;17.90;99.90;;;;;;5105428;28;20682;-73
2021/06/04 05:43:40;;;;;;;10.90;8.10;;;17.90;99.90;;;;;;5099384;28;20637;-74
2021/06/04 05:46:07;;;;;;;11.00;8.40;;;17.80;99.90;;;;;;5087121;28;20036;-74
2021/06/04 05:48:34;;;;;;;12.45;9.27;;;17.90;99.90;;;;;;5089143;28;20517;-74
2021/06/04 05:51:05;;;;;;;12.88;10.07;;;18.10;99.90;;;;;;5105698;28;20023;-73
2021/06/04 05:53:33;;;;;;;11.27;9.02;;;18.10;99.90;;;;;;5104363;28;20090;-74
2021/06/04 05:56:00;;;;;;;12.73;8.27;;;18.20;99.90;;;;;;5088901;28;20032;-74
2021/06/04 05:58:28;;;;;;;12.38;8.15;;;18.30;99.90;;;;;;5098415;28;20110;-74
2021/06/04 06:00:56;;;;;;;10.35;7.55;;;18.30;99.90;;;;;;5097081;28;20027;-75
2021/06/04 06:03:27;;;;;;;11.18;8.77;;;18.40;99.90;;;;;;5087646;28;20046;-75
2021/06/04 06:05:53;;;;;;;14.07;8.35;;;18.40;99.90;;;;;;5104217;28;20027;-76
2021/06/04 06:08:19;;;;;;;12.10;8.55;;;18.40;99.90;;;;;;5093160;28;20028;-76
2021/06/04 06:10:45;;;;;;;12.25;9.15;;;18.40;99.90;;;;;;5104274;28;20153;-73
2021/06/04 06:13:11;;;;;;;11.85;8.93;;;18.50;99.90;;;;;;5101740;28;20106;-74
2021/06/04 06:15:37;;;;;;;12.98;9.48;;;18.50;99.90;;;;;;5104082;28;20055;-73
2021/06/04 06:18:04;;;;;;;12.27;8.68;;;18.60;99.90;;;;;;5098119;28;20133;-73
2021/06/04 06:20:33;;;;;;;12.48;9.32;;;18.60;99.90;;;;;;5104515;28;20035;-73
2021/06/04 06:23:00;;;;;;;12.13;9.07;;;18.70;99.90;;;;;;5102693;28;20039;-74
2021/06/04 06:25:30;;;;;;;12.60;9.00;;;18.70;99.90;;;;;;5090332;28;20530;-73
2021/06/04 06:27:58;;;;;;;15.02;9.25;;;18.70;99.90;;;;;;5103567;28;20023;-77
2021/06/04 06:30:25;;;;;;;18.70;8.75;;;18.70;99.90;;;;;;5094257;28;20057;-76
2021/06/04 06:32:51;;;;;;;12.50;8.70;;;18.70;99.90;;;;;;5083252;28;20032;-77
2021/06/04 06:35:21;;;;;;;11.25;8.45;;;18.80;99.90;;;;;;5103113;28;20019;-76
2021/06/04 06:37:48;;;;;;;14.30;9.82;;;18.90;99.90;;;;;;5087685;28;20112;-76
2021/06/04 06:40:14;;;;;;;12.07;9.35;;;18.90;99.90;;;;;;5083675;28;20581;-76
2021/06/04 06:42:40;;;;;;;10.18;8.75;;;18.90;99.90;;;;;;5091014;28;20043;-76
2021/06/04 06:45:09;;;;;;;11.68;8.13;;;18.90;99.90;;;;;;5095828;28;20106;-76
2021/06/04 06:47:37;;;;;;;15.85;9.45;;;19.00;99.90;;;;;;5092524;28;20020;-76
2021/06/04 06:50:06;;;;;;;11.43;9.50;;;19.10;99.90;;;;;;5088993;28;20039;-76
2021/06/04 06:52:33;;;;;;;11.02;9.30;;;19.20;99.90;;;;;;5096293;28;20024;-76
2021/06/04 06:54:59;;;;;;;12.20;9.35;;;19.30;99.90;;;;;;5093738;28;20023;-76
2021/06/04 06:57:24;;;;;;;12.57;9.20;;;19.50;99.90;;;;;;5086352;28;20527;-76
2021/06/04 06:59:50;;;;;;;12.82;8.93;;;19.60;99.90;;;;;;5087938;28;20024;-76
2021/06/04 07:02:18;;;;;;;12.95;9.35;;;19.80;99.90;;;;;;5085473;28;20032;-77
2021/06/04 07:04:44;;;;;;;12.65;8.88;;;19.90;99.90;;;;;;5095536;28;20482;-76
2021/06/04 07:07:11;;;;;;;14.20;9.25;;;20.20;99.90;;;;;;5103908;28;20027;-76
2021/06/04 07:09:37;;;;;;;13.10;9.07;;;20.50;99.90;;;;;;5093015;28;20012;-76
2021/06/04 07:12:03;;;;;;;12.20;9.40;;;20.70;99.80;;;;;;5083505;28;20382;-76
2021/06/04 07:14:31;;;;;;;11.77;8.25;;;20.90;99.40;;;;;;5083194;28;20052;-77
2021/06/04 07:16:57;;;;;;;10.43;8.32;;;21.20;99.10;;;;;;5084263;28;20125;-76
2021/06/04 07:19:23;;;;;;;16.33;9.25;;;21.30;98.10;;;;;;5083120;28;20047;-75
2021/06/04 07:21:50;;;;;;;11.13;8.65;;;21.50;98.40;;;;;;5083883;28;20024;-75
2021/06/04 07:24:16;;;;;;;19.58;8.40;;;21.90;97.40;;;;;;5083592;28;20552;-75
2021/06/04 07:26:48;;;;;;;12.35;8.35;;;22.20;97.40;;;;;;5084057;28;20119;-74
2021/06/04 07:29:16;;;;;;;11.90;8.45;;;22.80;97.00;;;;;;5087980;28;20024;-74
2021/06/04 07:31:42;;;;;;;10.02;7.65;;;23.40;96.40;;;;;;5095115;28;20040;-75
2021/06/04 07:34:08;;;;;;;11.95;8.00;;;24.20;95.30;;;;;;5095150;28;20035;-75
2021/06/04 07:36:41;;;;;;;11.43;8.23;;;25.00;93.70;;;;;;5108415;28;20027;-75
2021/06/04 07:39:13;;;;;;;10.15;7.95;;;25.70;93.10;;;;;;5094467;28;20037;-74
2021/06/04 07:41:40;;;;;;;9.18;6.93;;;26.60;92.40;;;;;;5087477;28;20102;-74
2021/06/04 07:44:07;;;;;;;10.48;7.65;;;26.20;91.50;;;;;;5097812;28;20063;-74
2021/06/04 07:46:34;;;;;;;21.92;8.85;;;26.00;91.70;;;;;;5107949;27;20072;-75
2021/06/04 07:48:59;;;;;;;27.38;8.52;;;25.40;91.90;;;;;;5105469;28;20032;-75
2021/06/04 07:51:29;;;;;;;8.68;6.93;;;25.20;92.20;;;;;;5096394;28;20532;-75
2021/06/04 07:53:55;;;;;;;9.20;7.15;;;24.70;92.40;;;;;;5105898;28;20081;-75
2021/06/04 07:56:22;;;;;;;13.65;8.10;;;24.50;92.60;;;;;;5107732;28;20023;-75
2021/06/04 07:58:48;;;;;;;12.52;8.32;;;24.50;93.50;;;;;;5102050;28;20035;-75
2021/06/04 08:01:15;;;;;;;9.20;7.32;;;24.70;93.40;;;;;;5091824;28;20032;-75
2021/06/04 08:03:41;;;;;;;15.13;7.53;;;24.50;94.00;;;;;;5095429;28;20089;-75
2021/06/04 08:06:09;;;;;;;10.65;7.43;;;23.90;93.80;;;;;;5105836;28;20118;-75
2021/06/04 08:08:36;;;;;;;11.43;7.88;;;24.10;93.50;;;;;;5101469;28;20032;-75
2021/06/04 08:11:04;;;;;;;12.43;7.40;;;24.00;93.10;;;;;;5088073;28;20109;-75
2021/06/04 08:13:30;;;;;;;8.40;6.78;;;24.20;92.30;;;;;;5098617;28;20107;-75
2021/06/04 08:16:00;;;;;;;12.43;8.05;;;24.20;92.80;;;;;;5089023;28;20115;-75
2021/06/04 08:18:29;;;;;;;8.45;6.75;;;24.50;92.60;;;;;;5090901;28;20067;-75
2021/06/04 08:20:56;;;;;;;12.15;7.40;;;24.30;93.00;;;;;;5106730;28;20490;-75
2021/06/04 08:23:30;;;;;;;8.95;7.15;;;24.10;92.20;;;;;;5105641;28;20027;-75
2021/06/04 08:25:58;;;;;;;8.80;6.53;;;24.10;92.70;;;;;;5091415;28;20035;-75
2021/06/04 08:28:27;;;;;;;8.95;6.88;;;24.30;92.90;;;;;;5089215;28;20020;-75
2021/06/04 08:30:53;;;;;;;12.52;7.40;;;24.50;92.60;;;;;;5099970;28;20935;-75
2021/06/04 08:33:22;;;;;;;12.63;7.75;;;24.40;92.90;;;;;;5102473;28;20045;-75
2021/06/04 08:35:50;;;;;;;9.38;6.82;;;24.10;91.80;;;;;;5100131;28;20548;-75
2021/06/04 08:38:16;;;;;;;11.30;7.82;;;24.10;92.40;;;;;;5086973;28;20020;-75
2021/06/04 08:40:43;;;;;;;10.93;7.50;;;24.50;92.40;;;;;;5097020;28;20634;-75
2021/06/04 08:43:24;;;;;;;10.77;6.93;;;24.50;91.70;;;;;;5099269;28;20039;-75
2021/06/04 08:46:25;;;;;;;11.57;6.47;;;24.50;92.10;;;;;;5100118;28;20473;-75
2021/06/04 08:49:16;;;;;;;9.80;7.57;;;24.80;92.50;;;;;;5097339;28;20067;-75
2021/06/04 08:51:57;;;;;;;12.75;7.15;;;24.50;91.50;;;;;;5102084;28;20062;-75
2021/06/04 08:54:47;;;;;;;22.63;8.48;;;24.60;91.90;;;;;;5093005;28;20686;-75
2021/06/04 08:57:53;;;;;;;12.10;7.70;;;24.70;92.00;;;;;;5086181;28;20077;-75
2021/06/04 09:00:29;;;;;;;9.88;7.53;;;24.90;92.00;;;;;;5098575;28;20039;-75
2021/06/04 09:03:09;;;;;;;8.90;6.68;;;25.00;91.70;;;;;;5102353;28;20036;-75
2021/06/04 09:05:54;;;;;;;9.73;7.38;;;25.00;92.30;;;;;;5085887;28;20032;-75
2021/06/04 09:08:28;;;;;;;9.60;7.85;;;24.90;91.80;;;;;;5104634;28;20127;-75
2021/06/04 09:11:04;;;;;;;11.63;7.65;;;24.90;92.00;;;;;;5086661;28;20039;-74
2021/06/04 09:13:33;;;;;;;13.48;7.32;;;25.20;91.80;;;;;;5103417;28;20053;-75
2021/06/04 09:16:12;;;;;;;11.80;8.30;;;25.40;91.70;;;;;;5105494;28;20032;-75
2021/06/04 09:18:45;;;;;;;11.70;7.75;;;25.30;91.40;;;;;;5089080;28;20039;-75
2021/06/04 09:21:22;;;;;;;11.45;8.07;;;24.90;91.10;;;;;;5085282;28;20502;-75
2021/06/04 09:23:50;;;;;;;10.45;8.23;;;25.10;91.70;;;;;;5087932;28;20032;-75
2021/06/04 09:26:18;;;;;;;17.83;8.75;;;25.60;91.30;;;;;;5103898;28;20034;-75
2021/06/04 09:29:10;;;;;;;10.35;8.05;;;25.50;91.20;;;;;;5094401;28;20054;-75
2021/06/04 09:31:43;;;;;;;12.45;8.75;;;25.80;92.00;;;;;;5085846;28;20028;-75
2021/06/04 09:34:31;;;;;;;11.07;9.27;;;25.90;91.60;;;;;;5088376;28;20031;-75
2021/06/04 09:37:38;;;;;;;11.23;9.10;;;25.70;90.90;;;;;;5105856;28;20023;-75
2021/06/04 09:40:29;;;;;;;15.02;9.27;;;25.70;91.60;;;;;;5092494;28;20023;-75
2021/06/04 09:43:01;;;;;;;22.05;9.25;;;26.00;90.80;;;;;;5088447;28;20787;-75
2021/06/04 09:45:31;;;;;;;9.70;7.93;;;25.70;90.70;;;;;;5099443;28;20070;-75
2021/06/04 09:48:12;;;;;;;12.35;8.32;;;26.30;91.20;;;;;;5085956;28;20035;-75
2021/06/04 09:50:42;;;;;;;12.05;8.07;;;26.20;90.90;;;;;;5092790;28;20053;-76
2021/06/04 09:53:20;;;;;;;11.13;8.15;;;26.00;91.00;;;;;;5105564;28;20043;-75
2021/06/04 09:55:48;;;;;;;13.50;8.05;;;26.10;91.00;;;;;;5102035;28;20027;-76
2021/06/04 09:58:17;;;;;;;10.32;7.82;;;26.50;90.80;;;;;;5092242;28;20016;-76
2021/06/04 10:00:44;;;;;;;11.50;9.13;;;26.80;90.20;;;;;;5097096;28;20078;-75
2021/06/04 10:03:34;;;;;;;12.82;8.43;;;26.90;90.70;;;;;;5090331;28;20127;-75
2021/06/04 10:06:09;;;;;;;10.52;8.52;;;26.80;89.80;;;;;;5085545;28;20094;-75
2021/06/04 10:08:47;;;;;;;15.80;8.88;;;26.80;90.70;;;;;;5087987;28;20047;-75
2021/06/04 10:11:47;;;;;;;11.57;9.05;;;26.90;88.20;;;;;;5090264;28;20073;-75
2021/06/04 10:14:26;;;;;;;11.07;8.13;;;27.10;88.80;;;;;;5102519;28;20051;-75
2021/06/04 10:19:41;;;;;;;10.40;8.50;;;27.00;87.70;;;;;;5092902;28;20525;-75
2021/06/04 10:22:34;;;;;;;12.35;7.68;;;27.20;86.30;;;;;;5083499;28;20035;-75
2021/06/04 10:24:59;;;;;;;9.05;7.25;;;27.00;85.50;;;;;;5084749;28;20716;-75
2021/06/04 10:27:25;;;;;;;13.25;8.95;;;27.30;87.80;;;;;;5083232;28;20107;-75
2021/06/04 10:30:21;;;;;;;12.90;7.57;;;27.20;84.90;;;;;;5086686;28;20036;-75
2021/06/04 10:32:53;;;;;;;14.98;7.30;;;27.00;89.00;;;;;;5091323;28;20076;-75
2021/06/04 10:35:39;;;;;;;8.85;7.32;;;27.70;88.60;;;;;;5093677;28;20034;-75
2021/06/04 10:38:13;;;;;;;11.30;7.55;;;27.90;87.40;;;;;;5103504;28;20058;-74
2021/06/04 10:40:51;;;;;;;10.82;7.38;;;27.30;85.30;;;;;;5084519;28;20131;-75
2021/06/04 10:43:30;;;;;;;9.75;5.50;;;27.80;86.80;;;;;;5099827;28;20031;-75
2021/06/04 10:46:01;;;;;;;10.98;6.13;;;27.70;85.10;;;;;;5097920;28;20134;-74
2021/06/04 10:48:39;;;;;;;8.23;6.22;;;27.60;86.60;;;;;;5083470;28;20016;-74
2021/06/04 10:51:28;;;;;;;8.27;5.93;;;27.50;85.90;;;;;;5094382;28;20644;-75
2021/06/04 10:53:56;;;;;;;10.05;6.65;;;27.90;83.90;;;;;;5084910;28;20024;-75
2021/06/04 10:56:34;;;;;;;8.35;4.53;;;27.60;83.90;;;;;;5096902;28;20098;-75
2021/06/04 10:59:35;;;;;;;10.27;4.80;;;27.60;84.00;;;;;;5094779;28;20077;-75
2021/06/04 11:02:16;;;;;;;10.95;4.60;;;27.90;83.50;;;;;;5089806;28;20047;-75
2021/06/04 11:05:02;;;;;;;5.10;4.00;;;27.90;83.80;;;;;;5086646;28;20038;-75
2021/06/04 11:08:01;;;;;;;7.10;4.53;;;28.00;81.90;;;;;;5089512;28;20019;-75
2021/06/04 11:10:59;;;;;;;8.38;4.00;;;28.00;80.80;;;;;;5103732;28;20047;-75
2021/06/04 11:13:48;;;;;;;7.90;4.45;;;28.30;82.70;;;;;;5101718;28;20038;-75
2021/06/04 11:16:33;;;;;;;8.93;4.10;;;28.20;83.30;;;;;;5088240;28;20064;-75
2021/06/04 11:19:15;;;;;;;8.75;4.53;;;28.50;82.80;;;;;;5095351;28;20049;-75
2021/06/04 11:21:48;;;;;;;6.85;3.97;;;28.30;80.10;;;;;;5109054;28;20027;-74
2021/06/04 11:24:17;;;;;;;8.00;3.75;;;28.40;82.80;;;;;;5100698;28;20607;-74
2021/06/04 11:26:51;;;;;;;6.63;4.40;;;28.70;83.10;;;;;;5090689;28;20047;-75
2021/06/04 11:29:30;;;;;;;9.00;4.72;;;28.50;81.50;;;;;;5101902;28;20027;-75
2021/06/04 11:32:17;;;;;;;12.52;4.40;;;28.60;80.60;;;;;;5098187;28;20028;-75
2021/06/04 11:34:55;;;;;;;7.57;4.22;;;28.60;84.00;;;;;;5089059;28;20029;-75
2021/06/04 11:37:42;;;;;;;6.05;3.92;;;28.60;81.40;;;;;;5087755;28;20426;-75
2021/06/04 11:40:19;;;;;;;6.97;4.18;;;28.60;80.30;;;;;;5087674;28;20025;-75
2021/06/04 11:42:53;;;;;;;8.65;3.75;;;28.40;79.40;;;;;;5088085;28;20135;-74
2021/06/04 11:45:22;;;;;;;6.20;3.60;;;28.50;79.80;;;;;;5104137;28;20361;-75
2021/06/04 11:47:49;;;;;;;6.50;3.85;;;28.60;79.90;;;;;;5102258;28;20028;-74
2021/06/04 11:50:35;;;;;;;8.98;3.63;;;28.60;79.60;;;;;;5104492;28;20358;-75
2021/06/04 11:53:22;;;;;;;5.82;3.53;;;28.60;82.40;;;;;;5087813;28;20635;-74
2021/06/04 11:55:48;;;;;;;7.30;3.55;;;29.00;82.80;;;;;;5107596;28;20786;-75
2021/06/04 11:58:29;;;;;;;7.40;3.60;;;29.00;81.30;;;;;;5106987;28;20032;-75
2021/06/04 12:01:39;;;;;;;7.05;3.65;;;28.70;79.20;;;;;;5092122;28;20023;-74
2021/06/04 12:04:16;;;;;;;5.30;3.20;;;28.90;79.70;;;;;;5053908;28;20040;-75
2021/06/04 12:06:55;;;;;;;8.32;4.00;;;28.90;80.40;;;;;;5065892;28;20094;-74
2021/06/04 12:09:33;;;;;;;8.77;3.28;;;28.70;79.80;;;;;;5073580;28;20039;-74
2021/06/04 12:12:24;;;;;;;7.40;3.65;;;28.80;80.00;;;;;;5090624;28;20019;-74
2021/06/04 12:14:57;;;;;;;10.05;3.92;;;29.10;80.30;;;;;;5092450;28;20101;-74
2021/06/04 12:17:39;;;;;;;7.28;3.60;;;29.20;79.80;;;;;;5106650;28;20032;-75
2021/06/04 12:20:20;;;;;;;4.22;2.60;;;29.20;79.30;;;;;;5105817;28;20039;-74
2021/06/04 12:23:02;;;;;;;11.27;3.75;;;28.90;77.40;;;;;;5097350;28;20043;-74
2021/06/04 12:25:58;;;;;;;6.32;3.35;;;29.20;79.80;;;;;;5092674;28;20069;-74
2021/06/04 12:28:23;;;;;;;6.18;4.00;;;29.40;78.80;;;;;;5105054;28;20119;-74
2021/06/04 12:30:54;;;;;;;9.15;3.70;;;29.40;78.80;;;;;;5098330;28;20107;-74
2021/06/04 12:33:43;;;;;;;5.35;3.60;;;29.20;77.90;;;;;;5089572;28;20039;-74
2021/06/04 12:36:41;;;;;;;7.72;3.40;;;29.60;78.50;;;;;;5086293;28;20040;-74
2021/06/04 12:39:28;;;;;;;7.70;3.40;;;29.90;80.70;;;;;;5057758;28;20086;-74
2021/06/04 12:42:18;;;;;;;5.68;3.17;;;29.80;79.80;;;;;;5092350;28;20901;-75
2021/06/04 12:45:06;;;;;;;10.75;3.70;;;29.60;79.10;;;;;;5090185;28;20035;-74
2021/06/04 12:47:41;;;;;;;7.50;3.97;;;29.70;78.70;;;;;;5099681;28;20092;-74
2021/06/04 12:50:13;;;;;;;4.90;3.72;;;29.80;78.50;;;;;;5088319;28;20366;-78
2021/06/04 12:52:39;;;;;;;5.95;3.65;;;29.40;78.70;;;;;;5102216;28;20112;-78
2021/06/04 12:55:29;;;;;;;7.90;4.22;;;29.40;78.60;;;;;;5100230;28;20030;-74
2021/06/04 12:58:13;;;;;;;7.30;4.22;;;29.30;79.10;;;;;;5105843;28;20031;-75
2021/06/04 13:00:39;;;;;;;7.93;3.70;;;29.60;80.20;;;;;;5097895;28;20177;-74
2021/06/04 13:03:28;;;;;;;7.72;4.57;;;29.50;79.70;;;;;;5085170;28;20393;-75
2021/06/04 13:05:56;;;;;;;5.72;3.45;;;29.50;78.50;;;;;;5086086;28;20021;-75
2021/06/04 13:08:31;;;;;;;5.20;3.90;;;29.60;80.10;;;;;;5083980;28;20078;-75
2021/06/04 13:10:59;;;;;;;11.45;3.97;;;29.80;79.50;;;;;;5102304;28;20031;-75
2021/06/04 13:13:35;;;;;;;9.77;4.28;;;29.30;79.10;;;;;;5105254;28;20046;-76
2021/06/04 13:16:31;;;;;;;7.10;4.15;;;29.30;78.40;;;;;;5098043;28;20107;-75